sensor_id;sensor_type;location;lat;lon;timestamp;temperature;humidity
13375;DHT22;6756;51.354;15.754;2023-05-21T00:02:21;10.50;99.90
13375;DHT22;6756;51.354;15.754;2023-05-21T00:06:22;10.50;99.90
13375;DHT22;6756;51.354;15.754;2023-05-21T00:10:23;10.50;99.90
13375;DHT22;6756;51.354;15.754;2023-05-21T00:14:24;10.50;99.90
13375;DHT22;6756;51.354;15.754;2023-05-21T00:18:25;10.50;99.90
13375;DHT22;6756;51.354;15.754;2023-05-21T00:22:26;10.60;99.90
13375;DHT22;6756;51.354;15.754;2023-05-21T00:26:27;10.60;99.90
13375;DHT22;6756;51.354;15.754;2023-05-21T00:30:28;10.60;99.90
13375;DHT22;6756;51.354;15.754;2023-05-21T00:34:29;10.70;99.90
13375;DHT22;6756;51.354;15.754;2023-05-21T00:38:31;10.60;99.90
13375;DHT22;6756;51.354;15.754;2023-05-21T00:42:32;10.60;99.90
13375;DHT22;6756;51.354;15.754;2023-05-21T00:46:33;10.60;99.90
13375;DHT22;6756;51.354;15.754;2023-05-21T00:50:34;10.60;99.90
13375;DHT22;6756;51.354;15.754;2023-05-21T00:54:35;10.50;99.90
13375;DHT22;6756;51.354;15.754;2023-05-21T00:58:38;10.60;99.90
13375;DHT22;6756;51.354;15.754;2023-05-21T01:02:39;10.50;99.90
13375;DHT22;6756;51.354;15.754;2023-05-21T01:06:41;10.50;99.90
13375;DHT22;6756;51.354;15.754;2023-05-21T01:10:42;10.40;99.90
13375;DHT22;6756;51.354;15.754;2023-05-21T01:14:44;10.40;99.90
13375;DHT22;6756;51.354;15.754;2023-05-21T01:18:45;10.30;99.90
13375;DHT22;6756;51.354;15.754;2023-05-21T01:22:53;10.20;99.90
13375;DHT22;6756;51.354;15.754;2023-05-21T01:26:54;10.10;99.90
13375;DHT22;6756;51.354;15.754;2023-05-21T01:31:04;10.10;99.90
13375;DHT22;6756;51.354;15.754;2023-05-21T01:35:13;10.10;99.90
13375;DHT22;6756;51.354;15.754;2023-05-21T01:39:26;10.00;99.90
13375;DHT22;6756;51.354;15.754;2023-05-21T01:43:30;9.90;99.90
13375;DHT22;6756;51.354;15.754;2023-05-21T01:47:32;9.90;99.90
13375;DHT22;6756;51.354;15.754;2023-05-21T01:51:36;9.80;99.90
13375;DHT22;6756;51.354;15.754;2023-05-21T01:55:37;9.70;99.90
13375;DHT22;6756;51.354;15.754;2023-05-21T01:59:44;9.60;99.90
13375;DHT22;6756;51.354;15.754;2023-05-21T02:03:45;9.50;99.90
13375;DHT22;6756;51.354;15.754;2023-05-21T02:07:46;9.40;99.90
13375;DHT22;6756;51.354;15.754;2023-05-21T02:11:51;9.30;99.90
13375;DHT22;6756;51.354;15.754;2023-05-21T02:15:52;9.20;99.90
13375;DHT22;6756;51.354;15.754;2023-05-21T02:19:54;9.30;99.90
13375;DHT22;6756;51.354;15.754;2023-05-21T02:23:55;9.30;99.90
13375;DHT22;6756;51.354;15.754;2023-05-21T02:28:00;9.30;99.90
13375;DHT22;6756;51.354;15.754;2023-05-21T02:32:02;9.40;99.90
13375;DHT22;6756;51.354;15.754;2023-05-21T02:36:03;9.50;99.90
13375;DHT22;6756;51.354;15.754;2023-05-21T02:40:04;9.50;99.90
13375;DHT22;6756;51.354;15.754;2023-05-21T02:44:06;9.60;99.90
13375;DHT22;6756;51.354;15.754;2023-05-21T02:48:07;9.80;99.90
13375;DHT22;6756;51.354;15.754;2023-05-21T02:52:08;9.90;99.90
13375;DHT22;6756;51.354;15.754;2023-05-21T02:56:09;9.80;99.90
13375;DHT22;6756;51.354;15.754;2023-05-21T03:00:12;9.60;99.90
13375;DHT22;6756;51.354;15.754;2023-05-21T03:04:13;9.50;99.90
13375;DHT22;6756;51.354;15.754;2023-05-21T03:08:14;9.40;99.90
13375;DHT22;6756;51.354;15.754;2023-05-21T03:12:15;9.30;99.90
13375;DHT22;6756;51.354;15.754;2023-05-21T03:16:16;9.30;99.90
13375;DHT22;6756;51.354;15.754;2023-05-21T03:20:17;9.50;99.90
13375;DHT22;6756;51.354;15.754;2023-05-21T03:24:18;9.60;99.90
13375;DHT22;6756;51.354;15.754;2023-05-21T03:28:19;9.60;99.90
13375;DHT22;6756;51.354;15.754;2023-05-21T03:32:23;9.70;99.90
13375;DHT22;6756;51.354;15.754;2023-05-21T03:36:26;9.80;99.90
13375;DHT22;6756;51.354;15.754;2023-05-21T03:40:27;10.00;99.90
13375;DHT22;6756;51.354;15.754;2023-05-21T03:44:28;10.20;99.90
13375;DHT22;6756;51.354;15.754;2023-05-21T03:48:31;10.60;99.90
13375;DHT22;6756;51.354;15.754;2023-05-21T03:52:32;10.90;99.90
13375;DHT22;6756;51.354;15.754;2023-05-21T03:56:34;11.00;99.90
13375;DHT22;6756;51.354;15.754;2023-05-21T04:00:35;11.40;99.90
13375;DHT22;6756;51.354;15.754;2023-05-21T04:04:40;12.10;99.90
13375;DHT22;6756;51.354;15.754;2023-05-21T04:08:41;13.00;99.90
13375;DHT22;6756;51.354;15.754;2023-05-21T04:12:42;13.80;99.90
13375;DHT22;6756;51.354;15.754;2023-05-21T04:16:43;14.50;99.90
13375;DHT22;6756;51.354;15.754;2023-05-21T04:20:44;15.10;99.90
13375;DHT22;6756;51.354;15.754;2023-05-21T04:24:45;15.70;99.90
13375;DHT22;6756;51.354;15.754;2023-05-21T04:28:48;16.20;99.90
13375;DHT22;6756;51.354;15.754;2023-05-21T04:32:54;16.70;99.90
13375;DHT22;6756;51.354;15.754;2023-05-21T04:36:57;16.80;99.90
13375;DHT22;6756;51.354;15.754;2023-05-21T04:40:58;17.20;59.80
13375;DHT22;6756;51.354;15.754;2023-05-21T04:45:03;17.50;1.00
13375;DHT22;6756;51.354;15.754;2023-05-21T04:49:08;17.60;1.00
13375;DHT22;6756;51.354;15.754;2023-05-21T04:53:09;17.80;99.90
13375;DHT22;6756;51.354;15.754;2023-05-21T04:57:10;18.00;99.90
13375;DHT22;6756;51.354;15.754;2023-05-21T05:01:11;17.90;99.90
13375;DHT22;6756;51.354;15.754;2023-05-21T05:05:12;17.70;99.90
13375;DHT22;6756;51.354;15.754;2023-05-21T05:09:13;17.50;99.90
13375;DHT22;6756;51.354;15.754;2023-05-21T05:13:14;17.20;1.00
13375;DHT22;6756;51.354;15.754;2023-05-21T05:17:15;17.10;1.00
13375;DHT22;6756;51.354;15.754;2023-05-21T05:21:20;16.80;1.00
13375;DHT22;6756;51.354;15.754;2023-05-21T05:25:23;16.80;1.00
13375;DHT22;6756;51.354;15.754;2023-05-21T05:29:24;16.90;1.00
13375;DHT22;6756;51.354;15.754;2023-05-21T05:33:25;17.00;1.00
13375;DHT22;6756;51.354;15.754;2023-05-21T05:37:26;17.10;1.00
13375;DHT22;6756;51.354;15.754;2023-05-21T05:41:30;17.10;1.00
13375;DHT22;6756;51.354;15.754;2023-05-21T05:45:31;17.20;1.00
13375;DHT22;6756;51.354;15.754;2023-05-21T05:49:32;17.40;1.00
13375;DHT22;6756;51.354;15.754;2023-05-21T05:53:33;17.60;1.00
13375;DHT22;6756;51.354;15.754;2023-05-21T05:57:37;17.80;1.00
13375;DHT22;6756;51.354;15.754;2023-05-21T06:01:38;18.00;99.90
13375;DHT22;6756;51.354;15.754;2023-05-21T06:05:39;18.30;99.90
13375;DHT22;6756;51.354;15.754;2023-05-21T06:09:40;18.60;99.90
13375;DHT22;6756;51.354;15.754;2023-05-21T06:13:42;18.70;99.90
13375;DHT22;6756;51.354;15.754;2023-05-21T06:17:43;18.90;99.90
13375;DHT22;6756;51.354;15.754;2023-05-21T06:21:44;19.00;99.90
13375;DHT22;6756;51.354;15.754;2023-05-21T06:25:46;19.20;99.90
13375;DHT22;6756;51.354;15.754;2023-05-21T06:29:47;19.40;99.90
13375;DHT22;6756;51.354;15.754;2023-05-21T06:33:48;19.50;99.90
13375;DHT22;6756;51.354;15.754;2023-05-21T06:37:49;19.70;99.90
13375;DHT22;6756;51.354;15.754;2023-05-21T06:41:50;19.60;99.90
13375;DHT22;6756;51.354;15.754;2023-05-21T06:45:51;19.60;99.90
13375;DHT22;6756;51.354;15.754;2023-05-21T06:49:52;19.60;99.90
13375;DHT22;6756;51.354;15.754;2023-05-21T06:53:54;19.70;99.90
13375;DHT22;6756;51.354;15.754;2023-05-21T06:57:56;19.80;99.90
13375;DHT22;6756;51.354;15.754;2023-05-21T07:01:57;19.90;99.90
13375;DHT22;6756;51.354;15.754;2023-05-21T07:06:01;20.10;99.90
13375;DHT22;6756;51.354;15.754;2023-05-21T07:10:03;20.20;99.90
13375;DHT22;6756;51.354;15.754;2023-05-21T07:14:04;20.20;99.90
13375;DHT22;6756;51.354;15.754;2023-05-21T07:18:06;20.20;99.90
13375;DHT22;6756;51.354;15.754;2023-05-21T07:22:07;20.50;99.90
13375;DHT22;6756;51.354;15.754;2023-05-21T07:26:09;20.80;99.90
13375;DHT22;6756;51.354;15.754;2023-05-21T07:30:11;21.00;99.90
13375;DHT22;6756;51.354;15.754;2023-05-21T07:34:18;21.00;99.90
13375;DHT22;6756;51.354;15.754;2023-05-21T07:38:25;21.30;99.90
13375;DHT22;6756;51.354;15.754;2023-05-21T07:42:30;21.40;99.90
13375;DHT22;6756;51.354;15.754;2023-05-21T07:46:31;21.50;99.90
13375;DHT22;6756;51.354;15.754;2023-05-21T07:50:34;21.70;99.90
13375;DHT22;6756;51.354;15.754;2023-05-21T07:54:35;21.80;99.90
13375;DHT22;6756;51.354;15.754;2023-05-21T07:58:36;22.10;99.90
13375;DHT22;6756;51.354;15.754;2023-05-21T08:02:37;22.20;99.90
13375;DHT22;6756;51.354;15.754;2023-05-21T08:06:42;22.10;99.90
13375;DHT22;6756;51.354;15.754;2023-05-21T08:10:46;22.30;99.90
13375;DHT22;6756;51.354;15.754;2023-05-21T08:14:47;22.30;99.90
13375;DHT22;6756;51.354;15.754;2023-05-21T08:18:50;22.30;99.90
13375;DHT22;6756;51.354;15.754;2023-05-21T08:22:51;22.40;99.90
13375;DHT22;6756;51.354;15.754;2023-05-21T08:26:53;22.50;99.90
13375;DHT22;6756;51.354;15.754;2023-05-21T08:30:54;22.60;96.80
13375;DHT22;6756;51.354;15.754;2023-05-21T08:34:56;22.70;98.90
13375;DHT22;6756;51.354;15.754;2023-05-21T08:38:57;22.80;74.70
13375;DHT22;6756;51.354;15.754;2023-05-21T08:43:01;23.00;48.60
13375;DHT22;6756;51.354;15.754;2023-05-21T08:47:05;23.10;41.00
13375;DHT22;6756;51.354;15.754;2023-05-21T08:51:07;23.20;40.50
13375;DHT22;6756;51.354;15.754;2023-05-21T08:55:08;23.50;45.80
13375;DHT22;6756;51.354;15.754;2023-05-21T08:59:10;23.70;27.90
13375;DHT22;6756;51.354;15.754;2023-05-21T09:03:16;23.80;30.90
13375;DHT22;6756;51.354;15.754;2023-05-21T09:07:17;23.80;27.10
13375;DHT22;6756;51.354;15.754;2023-05-21T09:11:21;24.00;21.00
13375;DHT22;6756;51.354;15.754;2023-05-21T09:15:23;24.10;27.10
13375;DHT22;6756;51.354;15.754;2023-05-21T09:19:24;24.20;7.50
13375;DHT22;6756;51.354;15.754;2023-05-21T09:23:31;24.20;1.00
13375;DHT22;6756;51.354;15.754;2023-05-21T09:27:32;24.20;1.00
13375;DHT22;6756;51.354;15.754;2023-05-21T09:31:33;24.20;1.00
13375;DHT22;6756;51.354;15.754;2023-05-21T09:35:34;24.40;1.00
13375;DHT22;6756;51.354;15.754;2023-05-21T09:39:39;24.50;1.00
13375;DHT22;6756;51.354;15.754;2023-05-21T09:43:48;24.70;1.00
13375;DHT22;6756;51.354;15.754;2023-05-21T09:47:51;25.00;1.00
13375;DHT22;6756;51.354;15.754;2023-05-21T09:51:57;25.30;1.00
13375;DHT22;6756;51.354;15.754;2023-05-21T09:55:58;25.50;1.00
13375;DHT22;6756;51.354;15.754;2023-05-21T10:00:00;25.70;1.00
13375;DHT22;6756;51.354;15.754;2023-05-21T10:04:06;25.80;1.00
13375;DHT22;6756;51.354;15.754;2023-05-21T10:08:08;25.70;1.00
13375;DHT22;6756;51.354;15.754;2023-05-21T10:12:19;25.80;1.00
13375;DHT22;6756;51.354;15.754;2023-05-21T10:16:23;26.00;1.00
13375;DHT22;6756;51.354;15.754;2023-05-21T10:20:24;26.10;1.00
13375;DHT22;6756;51.354;15.754;2023-05-21T10:24:26;26.20;1.00
13375;DHT22;6756;51.354;15.754;2023-05-21T10:28:29;26.20;1.00
13375;DHT22;6756;51.354;15.754;2023-05-21T10:32:34;26.40;1.00
13375;DHT22;6756;51.354;15.754;2023-05-21T10:36:35;26.50;1.00
13375;DHT22;6756;51.354;15.754;2023-05-21T10:40:37;26.40;1.00
13375;DHT22;6756;51.354;15.754;2023-05-21T10:45:15;26.30;1.00
13375;DHT22;6756;51.354;15.754;2023-05-21T10:49:29;26.30;1.00
13375;DHT22;6756;51.354;15.754;2023-05-21T11:02:17;26.40;1.00
13375;DHT22;6756;51.354;15.754;2023-05-21T11:06:24;26.40;1.00
13375;DHT22;6756;51.354;15.754;2023-05-21T11:10:38;26.50;1.00
13375;DHT22;6756;51.354;15.754;2023-05-21T11:14:57;26.20;1.00
13375;DHT22;6756;51.354;15.754;2023-05-21T11:18:58;26.50;1.00
13375;DHT22;6756;51.354;15.754;2023-05-21T11:23:03;26.40;1.00
13375;DHT22;6756;51.354;15.754;2023-05-21T11:27:04;26.60;1.00
13375;DHT22;6756;51.354;15.754;2023-05-21T11:31:33;26.90;1.00
13375;DHT22;6756;51.354;15.754;2023-05-21T11:39:46;27.20;1.00
13375;DHT22;6756;51.354;15.754;2023-05-21T11:43:59;27.10;1.00
13375;DHT22;6756;51.354;15.754;2023-05-21T11:48:01;27.30;1.00
13375;DHT22;6756;51.354;15.754;2023-05-21T11:52:04;27.40;1.00
13375;DHT22;6756;51.354;15.754;2023-05-21T11:56:08;27.80;1.00
13375;DHT22;6756;51.354;15.754;2023-05-21T12:00:15;28.20;1.00
13375;DHT22;6756;51.354;15.754;2023-05-21T12:04:16;28.20;1.00
13375;DHT22;6756;51.354;15.754;2023-05-21T12:08:24;28.10;1.00
13375;DHT22;6756;51.354;15.754;2023-05-21T12:12:26;27.90;1.00
13375;DHT22;6756;51.354;15.754;2023-05-21T12:16:27;27.80;1.00
13375;DHT22;6756;51.354;15.754;2023-05-21T12:20:31;27.70;1.00
13375;DHT22;6756;51.354;15.754;2023-05-21T12:24:33;27.50;1.00
13375;DHT22;6756;51.354;15.754;2023-05-21T12:28:35;27.50;1.00
13375;DHT22;6756;51.354;15.754;2023-05-21T12:32:41;27.50;1.00
13375;DHT22;6756;51.354;15.754;2023-05-21T12:36:43;27.50;1.00
13375;DHT22;6756;51.354;15.754;2023-05-21T12:40:51;27.50;1.00
13375;DHT22;6756;51.354;15.754;2023-05-21T12:44:55;27.60;1.00
13375;DHT22;6756;51.354;15.754;2023-05-21T12:48:57;27.60;1.00
13375;DHT22;6756;51.354;15.754;2023-05-21T12:52:58;27.70;1.00
13375;DHT22;6756;51.354;15.754;2023-05-21T12:57:26;27.70;1.00
13375;DHT22;6756;51.354;15.754;2023-05-21T13:01:27;27.60;1.00
13375;DHT22;6756;51.354;15.754;2023-05-21T13:05:29;27.60;1.00
13375;DHT22;6756;51.354;15.754;2023-05-21T13:09:30;27.80;1.00
13375;DHT22;6756;51.354;15.754;2023-05-21T13:13:34;27.80;1.00
13375;DHT22;6756;51.354;15.754;2023-05-21T13:17:35;28.00;1.00
13375;DHT22;6756;51.354;15.754;2023-05-21T13:21:36;28.00;1.00
13375;DHT22;6756;51.354;15.754;2023-05-21T13:25:37;28.10;1.00
13375;DHT22;6756;51.354;15.754;2023-05-21T13:29:38;28.10;1.00
13375;DHT22;6756;51.354;15.754;2023-05-21T13:33:42;28.30;1.00
13375;DHT22;6756;51.354;15.754;2023-05-21T13:37:46;28.20;1.00
13375;DHT22;6756;51.354;15.754;2023-05-21T13:41:47;28.10;1.00
13375;DHT22;6756;51.354;15.754;2023-05-21T13:45:49;27.80;1.00
13375;DHT22;6756;51.354;15.754;2023-05-21T13:49:51;27.90;1.00
13375;DHT22;6756;51.354;15.754;2023-05-21T13:53:52;27.90;1.00
13375;DHT22;6756;51.354;15.754;2023-05-21T13:57:53;27.70;1.00
13375;DHT22;6756;51.354;15.754;2023-05-21T14:01:54;27.50;1.00
13375;DHT22;6756;51.354;15.754;2023-05-21T14:05:56;27.50;1.00
13375;DHT22;6756;51.354;15.754;2023-05-21T14:09:59;27.30;1.00
13375;DHT22;6756;51.354;15.754;2023-05-21T14:14:01;27.40;1.00
13375;DHT22;6756;51.354;15.754;2023-05-21T14:18:02;27.50;1.00
13375;DHT22;6756;51.354;15.754;2023-05-21T14:22:07;27.50;1.00
13375;DHT22;6756;51.354;15.754;2023-05-21T14:26:08;27.20;1.00
13375;DHT22;6756;51.354;15.754;2023-05-21T14:30:09;27.00;1.00
13375;DHT22;6756;51.354;15.754;2023-05-21T14:34:11;27.20;1.00
13375;DHT22;6756;51.354;15.754;2023-05-21T14:38:12;27.60;1.00
13375;DHT22;6756;51.354;15.754;2023-05-21T14:42:13;27.90;1.00
13375;DHT22;6756;51.354;15.754;2023-05-21T14:46:14;28.00;1.00
13375;DHT22;6756;51.354;15.754;2023-05-21T14:50:16;27.90;1.00
13375;DHT22;6756;51.354;15.754;2023-05-21T14:54:17;28.00;1.00
13375;DHT22;6756;51.354;15.754;2023-05-21T14:58:18;27.80;1.00
13375;DHT22;6756;51.354;15.754;2023-05-21T15:02:19;27.60;1.00
13375;DHT22;6756;51.354;15.754;2023-05-21T15:06:20;27.50;1.00
13375;DHT22;6756;51.354;15.754;2023-05-21T15:10:25;27.20;1.00
13375;DHT22;6756;51.354;15.754;2023-05-21T15:14:26;27.30;1.00
13375;DHT22;6756;51.354;15.754;2023-05-21T15:18:27;27.20;1.00
13375;DHT22;6756;51.354;15.754;2023-05-21T15:22:32;27.10;1.00
13375;DHT22;6756;51.354;15.754;2023-05-21T15:26:33;27.10;1.00
13375;DHT22;6756;51.354;15.754;2023-05-21T15:30:34;27.10;1.00
13375;DHT22;6756;51.354;15.754;2023-05-21T15:34:35;27.00;1.00
13375;DHT22;6756;51.354;15.754;2023-05-21T15:38:36;26.90;1.00
13375;DHT22;6756;51.354;15.754;2023-05-21T15:42:37;27.00;1.00
13375;DHT22;6756;51.354;15.754;2023-05-21T15:46:38;27.00;1.00
13375;DHT22;6756;51.354;15.754;2023-05-21T15:50:39;27.00;1.00
13375;DHT22;6756;51.354;15.754;2023-05-21T15:54:40;26.90;1.00
13375;DHT22;6756;51.354;15.754;2023-05-21T15:58:41;26.90;1.00
13375;DHT22;6756;51.354;15.754;2023-05-21T16:02:42;26.90;1.00
13375;DHT22;6756;51.354;15.754;2023-05-21T16:06:43;26.80;1.00
13375;DHT22;6756;51.354;15.754;2023-05-21T16:10:44;26.50;1.00
13375;DHT22;6756;51.354;15.754;2023-05-21T16:14:47;26.40;1.00
13375;DHT22;6756;51.354;15.754;2023-05-21T16:18:49;26.30;1.00
13375;DHT22;6756;51.354;15.754;2023-05-21T16:22:50;26.20;1.00
13375;DHT22;6756;51.354;15.754;2023-05-21T16:26:51;26.00;1.00
13375;DHT22;6756;51.354;15.754;2023-05-21T16:30:52;25.80;1.00
13375;DHT22;6756;51.354;15.754;2023-05-21T16:34:53;25.60;1.00
13375;DHT22;6756;51.354;15.754;2023-05-21T16:38:54;25.50;1.00
13375;DHT22;6756;51.354;15.754;2023-05-21T16:42:59;25.40;1.00
13375;DHT22;6756;51.354;15.754;2023-05-21T16:47:00;25.40;1.00
13375;DHT22;6756;51.354;15.754;2023-05-21T16:51:03;25.40;1.00
13375;DHT22;6756;51.354;15.754;2023-05-21T16:55:05;25.40;1.00
13375;DHT22;6756;51.354;15.754;2023-05-21T16:59:06;25.40;1.00
13375;DHT22;6756;51.354;15.754;2023-05-21T17:03:07;25.40;1.00
13375;DHT22;6756;51.354;15.754;2023-05-21T17:07:08;25.40;1.00
13375;DHT22;6756;51.354;15.754;2023-05-21T17:11:09;25.50;1.00
13375;DHT22;6756;51.354;15.754;2023-05-21T17:15:10;25.50;1.00
13375;DHT22;6756;51.354;15.754;2023-05-21T17:19:13;25.40;1.00
13375;DHT22;6756;51.354;15.754;2023-05-21T17:23:14;25.20;1.00
13375;DHT22;6756;51.354;15.754;2023-05-21T17:27:15;25.00;1.00
13375;DHT22;6756;51.354;15.754;2023-05-21T17:31:19;24.90;1.00
13375;DHT22;6756;51.354;15.754;2023-05-21T17:35:21;24.70;1.00
13375;DHT22;6756;51.354;15.754;2023-05-21T17:39:22;24.50;1.00
13375;DHT22;6756;51.354;15.754;2023-05-21T17:43:24;24.30;1.00
13375;DHT22;6756;51.354;15.754;2023-05-21T17:47:27;24.20;1.00
13375;DHT22;6756;51.354;15.754;2023-05-21T17:51:28;24.00;1.00
13375;DHT22;6756;51.354;15.754;2023-05-21T17:55:29;23.80;1.00
13375;DHT22;6756;51.354;15.754;2023-05-21T17:59:30;23.60;1.00
13375;DHT22;6756;51.354;15.754;2023-05-21T18:03:31;23.40;1.00
13375;DHT22;6756;51.354;15.754;2023-05-21T18:07:32;23.20;1.00
13375;DHT22;6756;51.354;15.754;2023-05-21T18:11:33;23.00;1.00
13375;DHT22;6756;51.354;15.754;2023-05-21T18:15:34;22.80;1.00
13375;DHT22;6756;51.354;15.754;2023-05-21T18:19:35;22.70;1.00
13375;DHT22;6756;51.354;15.754;2023-05-21T18:23:39;22.50;1.00
13375;DHT22;6756;51.354;15.754;2023-05-21T18:27:40;22.40;1.00
13375;DHT22;6756;51.354;15.754;2023-05-21T18:31:42;22.30;1.00
13375;DHT22;6756;51.354;15.754;2023-05-21T18:35:44;22.10;1.00
13375;DHT22;6756;51.354;15.754;2023-05-21T18:39:45;22.00;1.00
13375;DHT22;6756;51.354;15.754;2023-05-21T18:43:47;21.80;1.00
13375;DHT22;6756;51.354;15.754;2023-05-21T18:47:48;21.70;1.00
13375;DHT22;6756;51.354;15.754;2023-05-21T18:51:49;21.70;1.00
13375;DHT22;6756;51.354;15.754;2023-05-21T18:55:50;21.60;1.00
13375;DHT22;6756;51.354;15.754;2023-05-21T18:59:51;21.50;1.00
13375;DHT22;6756;51.354;15.754;2023-05-21T19:03:52;21.40;1.00
13375;DHT22;6756;51.354;15.754;2023-05-21T19:07:53;21.20;1.00
13375;DHT22;6756;51.354;15.754;2023-05-21T19:11:54;21.20;1.00
13375;DHT22;6756;51.354;15.754;2023-05-21T19:15:55;21.00;1.00
13375;DHT22;6756;51.354;15.754;2023-05-21T19:19:58;21.00;1.00
13375;DHT22;6756;51.354;15.754;2023-05-21T19:24:02;20.90;1.00
13375;DHT22;6756;51.354;15.754;2023-05-21T19:28:04;20.80;1.00
13375;DHT22;6756;51.354;15.754;2023-05-21T19:32:05;20.70;1.00
13375;DHT22;6756;51.354;15.754;2023-05-21T19:36:06;20.50;1.00
13375;DHT22;6756;51.354;15.754;2023-05-21T19:40:08;20.30;1.00
13375;DHT22;6756;51.354;15.754;2023-05-21T19:44:09;20.10;1.00
13375;DHT22;6756;51.354;15.754;2023-05-21T19:48:10;20.00;1.00
13375;DHT22;6756;51.354;15.754;2023-05-21T19:52:11;19.80;1.00
13375;DHT22;6756;51.354;15.754;2023-05-21T19:56:22;19.70;1.00
13375;DHT22;6756;51.354;15.754;2023-05-21T20:00:24;19.50;1.00
13375;DHT22;6756;51.354;15.754;2023-05-21T20:04:32;19.40;1.00
13375;DHT22;6756;51.354;15.754;2023-05-21T20:08:33;19.20;1.00
13375;DHT22;6756;51.354;15.754;2023-05-21T20:12:35;19.00;1.00
13375;DHT22;6756;51.354;15.754;2023-05-21T20:16:36;18.90;1.00
13375;DHT22;6756;51.354;15.754;2023-05-21T20:20:37;18.80;1.00
13375;DHT22;6756;51.354;15.754;2023-05-21T20:24:38;18.70;1.00
13375;DHT22;6756;51.354;15.754;2023-05-21T20:28:40;18.60;1.00
13375;DHT22;6756;51.354;15.754;2023-05-21T20:32:41;18.50;1.00
13375;DHT22;6756;51.354;15.754;2023-05-21T20:36:42;18.40;1.00
13375;DHT22;6756;51.354;15.754;2023-05-21T20:40:43;18.30;1.00
13375;DHT22;6756;51.354;15.754;2023-05-21T20:44:44;18.20;1.00
13375;DHT22;6756;51.354;15.754;2023-05-21T20:48:45;18.10;4.80
13375;DHT22;6756;51.354;15.754;2023-05-21T20:52:46;17.90;12.20
13375;DHT22;6756;51.354;15.754;2023-05-21T20:56:47;17.80;15.90
13375;DHT22;6756;51.354;15.754;2023-05-21T21:00:50;17.60;25.10
13375;DHT22;6756;51.354;15.754;2023-05-21T21:04:51;17.40;32.90
13375;DHT22;6756;51.354;15.754;2023-05-21T21:08:53;17.30;47.70
13375;DHT22;6756;51.354;15.754;2023-05-21T21:12:57;17.10;75.60
13375;DHT22;6756;51.354;15.754;2023-05-21T21:16:58;17.00;62.00
13375;DHT22;6756;51.354;15.754;2023-05-21T21:21:00;16.90;79.60
13375;DHT22;6756;51.354;15.754;2023-05-21T21:25:01;16.80;92.10
13375;DHT22;6756;51.354;15.754;2023-05-21T21:29:02;16.70;96.60
13375;DHT22;6756;51.354;15.754;2023-05-21T21:33:03;16.60;99.90
13375;DHT22;6756;51.354;15.754;2023-05-21T21:37:04;16.40;99.90
13375;DHT22;6756;51.354;15.754;2023-05-21T21:41:05;16.20;99.90
13375;DHT22;6756;51.354;15.754;2023-05-21T21:45:07;15.90;99.90
13375;DHT22;6756;51.354;15.754;2023-05-21T21:49:08;15.70;99.90
13375;DHT22;6756;51.354;15.754;2023-05-21T21:53:09;15.50;99.90
13375;DHT22;6756;51.354;15.754;2023-05-21T21:57:12;15.30;99.90
13375;DHT22;6756;51.354;15.754;2023-05-21T22:01:13;15.10;99.90
13375;DHT22;6756;51.354;15.754;2023-05-21T22:05:14;15.00;99.90
13375;DHT22;6756;51.354;15.754;2023-05-21T22:09:15;14.90;99.90
13375;DHT22;6756;51.354;15.754;2023-05-21T22:13:20;14.80;99.90
13375;DHT22;6756;51.354;15.754;2023-05-21T22:17:21;14.70;99.90
13375;DHT22;6756;51.354;15.754;2023-05-21T22:21:25;14.70;99.90
13375;DHT22;6756;51.354;15.754;2023-05-21T22:25:28;14.60;99.90
13375;DHT22;6756;51.354;15.754;2023-05-21T22:29:33;14.40;99.90
13375;DHT22;6756;51.354;15.754;2023-05-21T22:33:34;14.30;99.90
13375;DHT22;6756;51.354;15.754;2023-05-21T22:37:36;14.20;99.90
13375;DHT22;6756;51.354;15.754;2023-05-21T22:41:37;14.20;1.00
13375;DHT22;6756;51.354;15.754;2023-05-21T22:45:38;14.00;1.00
13375;DHT22;6756;51.354;15.754;2023-05-21T22:49:40;13.90;1.00
13375;DHT22;6756;51.354;15.754;2023-05-21T22:53:41;13.90;1.00
13375;DHT22;6756;51.354;15.754;2023-05-21T22:57:42;13.90;1.00
13375;DHT22;6756;51.354;15.754;2023-05-21T23:01:43;13.90;1.00
13375;DHT22;6756;51.354;15.754;2023-05-21T23:05:44;13.80;1.00
13375;DHT22;6756;51.354;15.754;2023-05-21T23:09:45;13.80;1.00
13375;DHT22;6756;51.354;15.754;2023-05-21T23:13:46;13.70;1.00
13375;DHT22;6756;51.354;15.754;2023-05-21T23:17:47;13.60;1.00
13375;DHT22;6756;51.354;15.754;2023-05-21T23:21:48;13.50;1.00
13375;DHT22;6756;51.354;15.754;2023-05-21T23:25:49;13.40;1.00
13375;DHT22;6756;51.354;15.754;2023-05-21T23:29:52;13.20;1.00
13375;DHT22;6756;51.354;15.754;2023-05-21T23:33:53;13.10;1.30
13375;DHT22;6756;51.354;15.754;2023-05-21T23:37:55;13.00;29.70
13375;DHT22;6756;51.354;15.754;2023-05-21T23:41:56;12.90;66.60
13375;DHT22;6756;51.354;15.754;2023-05-21T23:45:57;12.80;99.90
13375;DHT22;6756;51.354;15.754;2023-05-21T23:49:57;12.60;99.90
13375;DHT22;6756;51.354;15.754;2023-05-21T23:53:58;12.60;99.90
13375;DHT22;6756;51.354;15.754;2023-05-21T23:57:59;12.50;99.90
